sensor_id;sensor_type;location;lat;lon;timestamp;P1;durP1;ratioP1;P2;durP2;ratioP2
71462;SDS011;59266;52.608;13.260;2024-02-21T00:02:20;22.20;;;5.78;;
71462;SDS011;59266;52.608;13.260;2024-02-21T00:04:47;22.95;;;5.32;;
71462;SDS011;59266;52.608;13.260;2024-02-21T00:07:14;20.58;;;5.30;;
71462;SDS011;59266;52.608;13.260;2024-02-21T00:09:41;22.08;;;5.15;;
71462;SDS011;59266;52.608;13.260;2024-02-21T00:12:07;23.60;;;5.28;;
71462;SDS011;59266;52.608;13.260;2024-02-21T00:14:34;19.30;;;5.20;;
71462;SDS011;59266;52.608;13.260;2024-02-21T00:17:01;24.90;;;5.05;;
71462;SDS011;59266;52.608;13.260;2024-02-21T00:19:27;15.18;;;4.57;;
71462;SDS011;59266;52.608;13.260;2024-02-21T00:25:17;18.13;;;5.28;;
71462;SDS011;59266;52.608;13.260;2024-02-21T00:27:44;16.08;;;4.72;;
71462;SDS011;59266;52.608;13.260;2024-02-21T00:30:10;25.20;;;5.57;;
71462;SDS011;59266;52.608;13.260;2024-02-21T00:32:37;17.27;;;4.60;;
71462;SDS011;59266;52.608;13.260;2024-02-21T00:35:04;20.77;;;4.97;;
71462;SDS011;59266;52.608;13.260;2024-02-21T00:37:31;13.38;;;4.45;;
71462;SDS011;59266;52.608;13.260;2024-02-21T00:39:58;21.20;;;4.53;;
71462;SDS011;59266;52.608;13.260;2024-02-21T00:42:24;24.58;;;4.85;;
71462;SDS011;59266;52.608;13.260;2024-02-21T00:44:54;21.85;;;5.50;;
71462;SDS011;59266;52.608;13.260;2024-02-21T00:47:20;19.05;;;4.45;;
71462;SDS011;59266;52.608;13.260;2024-02-21T00:49:47;23.13;;;4.88;;
71462;SDS011;59266;52.608;13.260;2024-02-21T00:52:14;18.30;;;3.88;;
71462;SDS011;59266;52.608;13.260;2024-02-21T00:54:41;26.90;;;5.05;;
71462;SDS011;59266;52.608;13.260;2024-02-21T00:57:18;15.18;;;4.05;;
71462;SDS011;59266;52.608;13.260;2024-02-21T00:59:45;16.23;;;4.05;;
71462;SDS011;59266;52.608;13.260;2024-02-21T01:02:12;18.83;;;4.55;;
71462;SDS011;59266;52.608;13.260;2024-02-21T01:04:39;20.05;;;4.63;;
71462;SDS011;59266;52.608;13.260;2024-02-21T01:07:05;21.25;;;5.35;;
71462;SDS011;59266;52.608;13.260;2024-02-21T01:09:32;16.42;;;3.85;;
71462;SDS011;59266;52.608;13.260;2024-02-21T01:11:58;17.92;;;4.15;;
71462;SDS011;59266;52.608;13.260;2024-02-21T01:14:25;13.30;;;3.75;;
71462;SDS011;59266;52.608;13.260;2024-02-21T01:16:52;16.52;;;4.00;;
71462;SDS011;59266;52.608;13.260;2024-02-21T01:19:18;21.42;;;4.75;;
71462;SDS011;59266;52.608;13.260;2024-02-21T01:21:51;15.00;;;4.07;;
71462;SDS011;59266;52.608;13.260;2024-02-21T01:24:17;20.80;;;4.38;;
71462;SDS011;59266;52.608;13.260;2024-02-21T01:26:44;19.45;;;3.92;;
71462;SDS011;59266;52.608;13.260;2024-02-21T01:29:11;15.38;;;3.75;;
71462;SDS011;59266;52.608;13.260;2024-02-21T01:31:37;22.08;;;4.18;;
71462;SDS011;59266;52.608;13.260;2024-02-21T01:34:04;21.45;;;4.07;;
71462;SDS011;59266;52.608;13.260;2024-02-21T01:36:31;18.25;;;3.92;;
71462;SDS011;59266;52.608;13.260;2024-02-21T01:38:57;19.15;;;3.65;;
71462;SDS011;59266;52.608;13.260;2024-02-21T01:41:24;22.20;;;3.80;;
71462;SDS011;59266;52.608;13.260;2024-02-21T01:43:53;19.00;;;4.65;;
71462;SDS011;59266;52.608;13.260;2024-02-21T01:46:20;25.15;;;4.55;;
71462;SDS011;59266;52.608;13.260;2024-02-21T01:48:47;17.63;;;3.70;;
71462;SDS011;59266;52.608;13.260;2024-02-21T01:51:13;21.33;;;3.72;;
71462;SDS011;59266;52.608;13.260;2024-02-21T01:53:42;16.40;;;3.58;;
71462;SDS011;59266;52.608;13.260;2024-02-21T01:56:09;20.48;;;3.90;;
71462;SDS011;59266;52.608;13.260;2024-02-21T01:58:37;17.23;;;3.85;;
71462;SDS011;59266;52.608;13.260;2024-02-21T02:01:05;14.90;;;3.85;;
71462;SDS011;59266;52.608;13.260;2024-02-21T02:03:32;16.83;;;4.57;;
71462;SDS011;59266;52.608;13.260;2024-02-21T02:05:59;17.65;;;4.35;;
71462;SDS011;59266;52.608;13.260;2024-02-21T02:08:26;16.83;;;3.83;;
71462;SDS011;59266;52.608;13.260;2024-02-21T02:10:53;20.70;;;4.20;;
71462;SDS011;59266;52.608;13.260;2024-02-21T02:13:20;21.50;;;4.10;;
71462;SDS011;59266;52.608;13.260;2024-02-21T02:15:47;21.50;;;4.00;;
71462;SDS011;59266;52.608;13.260;2024-02-21T02:18:15;19.60;;;3.80;;
71462;SDS011;59266;52.608;13.260;2024-02-21T02:20:44;13.93;;;3.90;;
71462;SDS011;59266;52.608;13.260;2024-02-21T02:23:19;15.75;;;4.40;;
71462;SDS011;59266;52.608;13.260;2024-02-21T02:25:54;18.92;;;4.00;;
71462;SDS011;59266;52.608;13.260;2024-02-21T02:28:21;19.80;;;4.50;;
71462;SDS011;59266;52.608;13.260;2024-02-21T02:30:48;18.73;;;4.57;;
71462;SDS011;59266;52.608;13.260;2024-02-21T02:33:15;17.33;;;4.63;;
71462;SDS011;59266;52.608;13.260;2024-02-21T02:35:44;20.02;;;4.25;;
71462;SDS011;59266;52.608;13.260;2024-02-21T02:38:11;22.20;;;4.68;;
71462;SDS011;59266;52.608;13.260;2024-02-21T02:40:40;19.42;;;4.32;;
71462;SDS011;59266;52.608;13.260;2024-02-21T02:43:09;20.10;;;4.93;;
71462;SDS011;59266;52.608;13.260;2024-02-21T02:45:36;28.45;;;4.82;;
71462;SDS011;59266;52.608;13.260;2024-02-21T02:48:02;23.63;;;4.60;;
71462;SDS011;59266;52.608;13.260;2024-02-21T02:50:30;19.98;;;5.22;;
71462;SDS011;59266;52.608;13.260;2024-02-21T02:52:57;21.63;;;5.13;;
71462;SDS011;59266;52.608;13.260;2024-02-21T02:55:24;23.55;;;4.70;;
71462;SDS011;59266;52.608;13.260;2024-02-21T02:57:53;18.80;;;4.85;;
71462;SDS011;59266;52.608;13.260;2024-02-21T03:00:19;22.08;;;4.45;;
71462;SDS011;59266;52.608;13.260;2024-02-21T03:02:46;13.98;;;4.13;;
71462;SDS011;59266;52.608;13.260;2024-02-21T03:05:15;20.98;;;5.63;;
71462;SDS011;59266;52.608;13.260;2024-02-21T03:07:43;25.50;;;5.95;;
71462;SDS011;59266;52.608;13.260;2024-02-21T03:10:11;20.77;;;4.60;;
71462;SDS011;59266;52.608;13.260;2024-02-21T03:12:39;20.52;;;4.68;;
71462;SDS011;59266;52.608;13.260;2024-02-21T03:15:05;16.00;;;4.55;;
71462;SDS011;59266;52.608;13.260;2024-02-21T03:17:33;26.58;;;5.90;;
71462;SDS011;59266;52.608;13.260;2024-02-21T03:23:49;19.02;;;4.70;;
71462;SDS011;59266;52.608;13.260;2024-02-21T03:26:16;19.67;;;5.43;;
71462;SDS011;59266;52.608;13.260;2024-02-21T03:28:44;19.45;;;4.97;;
71462;SDS011;59266;52.608;13.260;2024-02-21T03:31:13;19.48;;;4.63;;
71462;SDS011;59266;52.608;13.260;2024-02-21T03:33:41;24.50;;;6.72;;
71462;SDS011;59266;52.608;13.260;2024-02-21T03:36:14;18.42;;;4.85;;
71462;SDS011;59266;52.608;13.260;2024-02-21T03:38:44;20.63;;;5.68;;
71462;SDS011;59266;52.608;13.260;2024-02-21T03:41:11;21.42;;;5.22;;
71462;SDS011;59266;52.608;13.260;2024-02-21T03:43:37;23.20;;;5.78;;
71462;SDS011;59266;52.608;13.260;2024-02-21T03:46:10;25.00;;;6.00;;
71462;SDS011;59266;52.608;13.260;2024-02-21T03:48:37;25.15;;;5.32;;
71462;SDS011;59266;52.608;13.260;2024-02-21T03:51:04;28.13;;;6.40;;
71462;SDS011;59266;52.608;13.260;2024-02-21T03:53:31;21.85;;;5.93;;
71462;SDS011;59266;52.608;13.260;2024-02-21T03:55:57;23.02;;;5.68;;
71462;SDS011;59266;52.608;13.260;2024-02-21T03:58:32;22.02;;;5.32;;
71462;SDS011;59266;52.608;13.260;2024-02-21T04:01:02;24.08;;;5.75;;
71462;SDS011;59266;52.608;13.260;2024-02-21T04:03:30;22.63;;;6.32;;
71462;SDS011;59266;52.608;13.260;2024-02-21T04:06:00;26.45;;;6.70;;
71462;SDS011;59266;52.608;13.260;2024-02-21T04:08:26;26.63;;;6.55;;
71462;SDS011;59266;52.608;13.260;2024-02-21T04:10:53;23.65;;;6.50;;
71462;SDS011;59266;52.608;13.260;2024-02-21T04:13:20;24.48;;;6.05;;
71462;SDS011;59266;52.608;13.260;2024-02-21T04:15:48;21.83;;;5.65;;
71462;SDS011;59266;52.608;13.260;2024-02-21T04:18:15;29.05;;;5.70;;
71462;SDS011;59266;52.608;13.260;2024-02-21T04:20:41;30.30;;;6.88;;
71462;SDS011;59266;52.608;13.260;2024-02-21T04:23:08;24.02;;;6.45;;
71462;SDS011;59266;52.608;13.260;2024-02-21T04:25:35;19.02;;;5.38;;
71462;SDS011;59266;52.608;13.260;2024-02-21T04:28:02;20.60;;;6.13;;
71462;SDS011;59266;52.608;13.260;2024-02-21T04:30:29;32.00;;;6.18;;
71462;SDS011;59266;52.608;13.260;2024-02-21T04:32:55;20.30;;;5.88;;
71462;SDS011;59266;52.608;13.260;2024-02-21T04:35:22;28.35;;;6.50;;
71462;SDS011;59266;52.608;13.260;2024-02-21T04:37:49;24.65;;;6.05;;
71462;SDS011;59266;52.608;13.260;2024-02-21T04:40:16;19.33;;;5.82;;
71462;SDS011;59266;52.608;13.260;2024-02-21T04:42:43;28.23;;;5.78;;
71462;SDS011;59266;52.608;13.260;2024-02-21T04:45:10;23.85;;;6.75;;
71462;SDS011;59266;52.608;13.260;2024-02-21T04:47:37;25.92;;;6.20;;
71462;SDS011;59266;52.608;13.260;2024-02-21T04:50:03;27.25;;;6.50;;
71462;SDS011;59266;52.608;13.260;2024-02-21T04:52:30;26.63;;;6.15;;
71462;SDS011;59266;52.608;13.260;2024-02-21T04:54:59;27.55;;;6.40;;
71462;SDS011;59266;52.608;13.260;2024-02-21T04:57:31;21.48;;;6.20;;
71462;SDS011;59266;52.608;13.260;2024-02-21T04:59:58;28.83;;;6.60;;
71462;SDS011;59266;52.608;13.260;2024-02-21T05:02:24;30.20;;;7.45;;
71462;SDS011;59266;52.608;13.260;2024-02-21T05:04:52;24.92;;;6.93;;
71462;SDS011;59266;52.608;13.260;2024-02-21T05:07:19;26.33;;;6.15;;
71462;SDS011;59266;52.608;13.260;2024-02-21T05:09:46;20.13;;;6.55;;
71462;SDS011;59266;52.608;13.260;2024-02-21T05:12:13;23.15;;;6.30;;
71462;SDS011;59266;52.608;13.260;2024-02-21T05:14:40;27.15;;;6.00;;
71462;SDS011;59266;52.608;13.260;2024-02-21T05:17:06;21.35;;;5.80;;
71462;SDS011;59266;52.608;13.260;2024-02-21T05:19:33;22.27;;;6.22;;
71462;SDS011;59266;52.608;13.260;2024-02-21T05:22:03;17.52;;;5.65;;
71462;SDS011;59266;52.608;13.260;2024-02-21T05:24:30;23.33;;;6.32;;
71462;SDS011;59266;52.608;13.260;2024-02-21T05:26:56;22.27;;;6.32;;
71462;SDS011;59266;52.608;13.260;2024-02-21T05:29:23;23.55;;;6.25;;
71462;SDS011;59266;52.608;13.260;2024-02-21T05:34:19;22.77;;;6.57;;
71462;SDS011;59266;52.608;13.260;2024-02-21T05:36:46;18.73;;;5.75;;
71462;SDS011;59266;52.608;13.260;2024-02-21T05:39:14;20.95;;;6.30;;
71462;SDS011;59266;52.608;13.260;2024-02-21T05:41:40;22.70;;;6.10;;
71462;SDS011;59266;52.608;13.260;2024-02-21T05:44:07;18.95;;;5.40;;
71462;SDS011;59266;52.608;13.260;2024-02-21T05:46:34;21.85;;;6.97;;
71462;SDS011;59266;52.608;13.260;2024-02-21T05:49:01;23.77;;;6.45;;
71462;SDS011;59266;52.608;13.260;2024-02-21T05:51:32;19.75;;;6.50;;
71462;SDS011;59266;52.608;13.260;2024-02-21T05:53:59;19.58;;;6.25;;
71462;SDS011;59266;52.608;13.260;2024-02-21T05:56:26;20.05;;;7.10;;
71462;SDS011;59266;52.608;13.260;2024-02-21T05:58:52;21.77;;;6.75;;
71462;SDS011;59266;52.608;13.260;2024-02-21T06:01:19;27.73;;;6.65;;
71462;SDS011;59266;52.608;13.260;2024-02-21T06:03:47;23.45;;;6.70;;
71462;SDS011;59266;52.608;13.260;2024-02-21T06:06:14;21.27;;;6.47;;
71462;SDS011;59266;52.608;13.260;2024-02-21T06:08:41;23.75;;;7.30;;
71462;SDS011;59266;52.608;13.260;2024-02-21T06:11:08;25.73;;;6.10;;
71462;SDS011;59266;52.608;13.260;2024-02-21T06:13:37;18.38;;;6.22;;
71462;SDS011;59266;52.608;13.260;2024-02-21T06:16:05;25.13;;;6.55;;
71462;SDS011;59266;52.608;13.260;2024-02-21T06:18:32;23.25;;;6.32;;
71462;SDS011;59266;52.608;13.260;2024-02-21T06:21:01;23.05;;;6.32;;
71462;SDS011;59266;52.608;13.260;2024-02-21T06:27:15;22.85;;;6.40;;
71462;SDS011;59266;52.608;13.260;2024-02-21T06:29:45;27.83;;;6.78;;
71462;SDS011;59266;52.608;13.260;2024-02-21T06:32:11;20.02;;;5.55;;
71462;SDS011;59266;52.608;13.260;2024-02-21T06:34:38;23.05;;;6.75;;
71462;SDS011;59266;52.608;13.260;2024-02-21T06:37:05;20.45;;;6.82;;
71462;SDS011;59266;52.608;13.260;2024-02-21T06:39:31;24.77;;;7.47;;
71462;SDS011;59266;52.608;13.260;2024-02-21T06:42:03;24.63;;;7.03;;
71462;SDS011;59266;52.608;13.260;2024-02-21T06:44:30;24.00;;;7.03;;
71462;SDS011;59266;52.608;13.260;2024-02-21T06:46:58;29.88;;;8.00;;
71462;SDS011;59266;52.608;13.260;2024-02-21T06:49:25;21.42;;;7.97;;
71462;SDS011;59266;52.608;13.260;2024-02-21T06:51:53;25.25;;;7.38;;
71462;SDS011;59266;52.608;13.260;2024-02-21T06:54:19;25.55;;;7.03;;
71462;SDS011;59266;52.608;13.260;2024-02-21T06:56:46;22.77;;;7.03;;
71462;SDS011;59266;52.608;13.260;2024-02-21T06:59:13;25.00;;;7.22;;
71462;SDS011;59266;52.608;13.260;2024-02-21T07:01:45;21.27;;;6.93;;
71462;SDS011;59266;52.608;13.260;2024-02-21T07:04:14;26.05;;;7.22;;
71462;SDS011;59266;52.608;13.260;2024-02-21T07:06:41;21.92;;;7.32;;
71462;SDS011;59266;52.608;13.260;2024-02-21T07:09:08;26.30;;;7.07;;
71462;SDS011;59266;52.608;13.260;2024-02-21T07:11:35;23.25;;;7.30;;
71462;SDS011;59266;52.608;13.260;2024-02-21T07:14:02;24.95;;;7.32;;
71462;SDS011;59266;52.608;13.260;2024-02-21T07:16:28;27.80;;;7.50;;
71462;SDS011;59266;52.608;13.260;2024-02-21T07:18:55;24.58;;;7.63;;
71462;SDS011;59266;52.608;13.260;2024-02-21T07:21:22;22.48;;;7.18;;
71462;SDS011;59266;52.608;13.260;2024-02-21T07:23:50;20.45;;;7.68;;
71462;SDS011;59266;52.608;13.260;2024-02-21T07:26:17;21.25;;;7.78;;
71462;SDS011;59266;52.608;13.260;2024-02-21T07:28:43;19.30;;;6.97;;
71462;SDS011;59266;52.608;13.260;2024-02-21T07:31:10;25.05;;;6.80;;
71462;SDS011;59266;52.608;13.260;2024-02-21T07:33:37;23.95;;;7.18;;
71462;SDS011;59266;52.608;13.260;2024-02-21T07:36:07;19.13;;;6.95;;
71462;SDS011;59266;52.608;13.260;2024-02-21T07:38:34;25.20;;;6.88;;
71462;SDS011;59266;52.608;13.260;2024-02-21T07:41:01;18.92;;;7.47;;
71462;SDS011;59266;52.608;13.260;2024-02-21T07:43:27;19.05;;;6.38;;
71462;SDS011;59266;52.608;13.260;2024-02-21T07:45:57;18.10;;;6.53;;
71462;SDS011;59266;52.608;13.260;2024-02-21T07:48:24;21.25;;;7.22;;
71462;SDS011;59266;52.608;13.260;2024-02-21T07:50:53;24.58;;;6.70;;
71462;SDS011;59266;52.608;13.260;2024-02-21T07:53:20;23.17;;;6.65;;
71462;SDS011;59266;52.608;13.260;2024-02-21T07:55:47;20.20;;;6.30;;
71462;SDS011;59266;52.608;13.260;2024-02-21T07:58:13;21.88;;;6.75;;
71462;SDS011;59266;52.608;13.260;2024-02-21T08:00:40;21.73;;;6.75;;
71462;SDS011;59266;52.608;13.260;2024-02-21T08:03:07;17.58;;;5.93;;
71462;SDS011;59266;52.608;13.260;2024-02-21T08:05:34;19.17;;;6.75;;
71462;SDS011;59266;52.608;13.260;2024-02-21T08:08:04;25.00;;;6.95;;
71462;SDS011;59266;52.608;13.260;2024-02-21T08:10:31;21.98;;;6.70;;
71462;SDS011;59266;52.608;13.260;2024-02-21T08:12:58;19.70;;;6.20;;
71462;SDS011;59266;52.608;13.260;2024-02-21T08:15:25;18.65;;;5.68;;
71462;SDS011;59266;52.608;13.260;2024-02-21T08:17:56;20.75;;;6.00;;
71462;SDS011;59266;52.608;13.260;2024-02-21T08:20:27;17.98;;;6.18;;
71462;SDS011;59266;52.608;13.260;2024-02-21T08:22:56;16.55;;;6.20;;
71462;SDS011;59266;52.608;13.260;2024-02-21T08:25:23;19.20;;;6.57;;
71462;SDS011;59266;52.608;13.260;2024-02-21T08:27:49;17.02;;;6.43;;
71462;SDS011;59266;52.608;13.260;2024-02-21T08:30:18;19.00;;;6.78;;
71462;SDS011;59266;52.608;13.260;2024-02-21T08:32:44;18.63;;;6.20;;
71462;SDS011;59266;52.608;13.260;2024-02-21T08:35:11;18.90;;;6.53;;
71462;SDS011;59266;52.608;13.260;2024-02-21T08:37:39;16.48;;;6.13;;
71462;SDS011;59266;52.608;13.260;2024-02-21T08:40:06;17.73;;;5.88;;
71462;SDS011;59266;52.608;13.260;2024-02-21T08:42:35;17.10;;;6.00;;
71462;SDS011;59266;52.608;13.260;2024-02-21T08:45:06;20.00;;;6.82;;
71462;SDS011;59266;52.608;13.260;2024-02-21T08:47:33;19.35;;;6.05;;
71462;SDS011;59266;52.608;13.260;2024-02-21T08:50:02;18.40;;;6.70;;
71462;SDS011;59266;52.608;13.260;2024-02-21T08:52:44;20.08;;;6.53;;
71462;SDS011;59266;52.608;13.260;2024-02-21T08:55:22;17.05;;;5.65;;
71462;SDS011;59266;52.608;13.260;2024-02-21T08:57:50;19.95;;;7.38;;
71462;SDS011;59266;52.608;13.260;2024-02-21T09:00:17;16.88;;;6.60;;
71462;SDS011;59266;52.608;13.260;2024-02-21T09:02:44;16.25;;;6.45;;
71462;SDS011;59266;52.608;13.260;2024-02-21T09:05:11;21.05;;;6.65;;
71462;SDS011;59266;52.608;13.260;2024-02-21T09:07:38;19.10;;;6.68;;
71462;SDS011;59266;52.608;13.260;2024-02-21T09:10:05;19.52;;;7.32;;
71462;SDS011;59266;52.608;13.260;2024-02-21T09:12:32;20.35;;;7.03;;
71462;SDS011;59266;52.608;13.260;2024-02-21T09:14:59;18.50;;;6.88;;
71462;SDS011;59266;52.608;13.260;2024-02-21T09:17:26;17.38;;;6.28;;
71462;SDS011;59266;52.608;13.260;2024-02-21T09:19:56;17.45;;;6.80;;
71462;SDS011;59266;52.608;13.260;2024-02-21T09:22:26;26.77;;;9.20;;
71462;SDS011;59266;52.608;13.260;2024-02-21T09:24:52;17.95;;;6.93;;
71462;SDS011;59266;52.608;13.260;2024-02-21T09:27:19;17.08;;;7.07;;
71462;SDS011;59266;52.608;13.260;2024-02-21T09:29:46;19.83;;;7.43;;
71462;SDS011;59266;52.608;13.260;2024-02-21T09:32:13;17.00;;;6.93;;
71462;SDS011;59266;52.608;13.260;2024-02-21T09:34:40;17.35;;;6.80;;
71462;SDS011;59266;52.608;13.260;2024-02-21T09:37:07;18.38;;;7.10;;
71462;SDS011;59266;52.608;13.260;2024-02-21T09:39:34;19.25;;;6.95;;
71462;SDS011;59266;52.608;13.260;2024-02-21T09:42:05;18.52;;;7.10;;
71462;SDS011;59266;52.608;13.260;2024-02-21T09:44:36;19.52;;;7.22;;
71462;SDS011;59266;52.608;13.260;2024-02-21T09:47:06;20.35;;;6.85;;
71462;SDS011;59266;52.608;13.260;2024-02-21T09:49:36;20.95;;;7.30;;
71462;SDS011;59266;52.608;13.260;2024-02-21T09:52:06;19.50;;;7.72;;
71462;SDS011;59266;52.608;13.260;2024-02-21T09:54:33;18.98;;;7.07;;
71462;SDS011;59266;52.608;13.260;2024-02-21T09:57:01;18.08;;;6.70;;
71462;SDS011;59266;52.608;13.260;2024-02-21T09:59:28;20.15;;;7.35;;
71462;SDS011;59266;52.608;13.260;2024-02-21T10:01:56;19.67;;;7.10;;
71462;SDS011;59266;52.608;13.260;2024-02-21T10:04:25;18.17;;;6.72;;
71462;SDS011;59266;52.608;13.260;2024-02-21T10:06:56;20.45;;;7.05;;
71462;SDS011;59266;52.608;13.260;2024-02-21T10:09:26;16.70;;;6.95;;
71462;SDS011;59266;52.608;13.260;2024-02-21T10:11:55;19.08;;;6.82;;
71462;SDS011;59266;52.608;13.260;2024-02-21T10:14:22;21.83;;;7.75;;
71462;SDS011;59266;52.608;13.260;2024-02-21T10:16:56;18.48;;;7.10;;
71462;SDS011;59266;52.608;13.260;2024-02-21T10:19:26;18.83;;;6.57;;
71462;SDS011;59266;52.608;13.260;2024-02-21T10:22:00;17.33;;;6.78;;
71462;SDS011;59266;52.608;13.260;2024-02-21T10:24:31;17.40;;;6.05;;
71462;SDS011;59266;52.608;13.260;2024-02-21T10:27:02;16.35;;;6.25;;
71462;SDS011;59266;52.608;13.260;2024-02-21T10:29:30;18.45;;;6.13;;
71462;SDS011;59266;52.608;13.260;2024-02-21T10:32:07;16.02;;;6.10;;
71462;SDS011;59266;52.608;13.260;2024-02-21T10:34:35;16.58;;;6.00;;
71462;SDS011;59266;52.608;13.260;2024-02-21T10:37:03;18.55;;;6.30;;
71462;SDS011;59266;52.608;13.260;2024-02-21T10:39:32;17.27;;;5.50;;
71462;SDS011;59266;52.608;13.260;2024-02-21T10:42:02;15.25;;;5.85;;
71462;SDS011;59266;52.608;13.260;2024-02-21T10:44:31;17.90;;;6.03;;
71462;SDS011;59266;52.608;13.260;2024-02-21T10:46:59;18.23;;;5.60;;
71462;SDS011;59266;52.608;13.260;2024-02-21T10:49:38;14.25;;;5.50;;
71462;SDS011;59266;52.608;13.260;2024-02-21T10:55:23;16.58;;;5.57;;
71462;SDS011;59266;52.608;13.260;2024-02-21T10:57:58;16.15;;;5.63;;
71462;SDS011;59266;52.608;13.260;2024-02-21T11:00:24;16.77;;;5.93;;
71462;SDS011;59266;52.608;13.260;2024-02-21T11:02:57;14.95;;;5.85;;
71462;SDS011;59266;52.608;13.260;2024-02-21T11:05:24;16.85;;;5.88;;
71462;SDS011;59266;52.608;13.260;2024-02-21T11:07:52;14.75;;;5.50;;
71462;SDS011;59266;52.608;13.260;2024-02-21T11:10:24;17.40;;;5.70;;
71462;SDS011;59266;52.608;13.260;2024-02-21T11:13:10;17.48;;;5.40;;
71462;SDS011;59266;52.608;13.260;2024-02-21T11:15:37;12.13;;;5.07;;
71462;SDS011;59266;52.608;13.260;2024-02-21T11:18:04;11.07;;;4.35;;
71462;SDS011;59266;52.608;13.260;2024-02-21T11:20:35;15.85;;;4.93;;
71462;SDS011;59266;52.608;13.260;2024-02-21T11:23:05;11.98;;;4.80;;
71462;SDS011;59266;52.608;13.260;2024-02-21T11:25:34;14.10;;;4.93;;
71462;SDS011;59266;52.608;13.260;2024-02-21T11:28:04;10.30;;;4.50;;
71462;SDS011;59266;52.608;13.260;2024-02-21T11:30:37;13.55;;;5.13;;
71462;SDS011;59266;52.608;13.260;2024-02-21T11:33:07;14.00;;;4.80;;
71462;SDS011;59266;52.608;13.260;2024-02-21T11:35:34;14.25;;;4.70;;
71462;SDS011;59266;52.608;13.260;2024-02-21T11:38:09;10.10;;;4.10;;
71462;SDS011;59266;52.608;13.260;2024-02-21T11:40:38;10.40;;;4.05;;
71462;SDS011;59266;52.608;13.260;2024-02-21T11:43:07;9.85;;;3.75;;
71462;SDS011;59266;52.608;13.260;2024-02-21T11:45:34;12.43;;;4.22;;
71462;SDS011;59266;52.608;13.260;2024-02-21T11:48:00;10.90;;;3.67;;
71462;SDS011;59266;52.608;13.260;2024-02-21T11:50:33;8.50;;;3.13;;
71462;SDS011;59266;52.608;13.260;2024-02-21T11:53:01;8.65;;;3.42;;
71462;SDS011;59266;52.608;13.260;2024-02-21T11:55:29;9.57;;;3.60;;
71462;SDS011;59266;52.608;13.260;2024-02-21T11:57:55;9.65;;;3.35;;
71462;SDS011;59266;52.608;13.260;2024-02-21T12:00:22;8.98;;;3.30;;
71462;SDS011;59266;52.608;13.260;2024-02-21T12:02:50;8.10;;;3.47;;
71462;SDS011;59266;52.608;13.260;2024-02-21T12:05:18;8.30;;;3.30;;
71462;SDS011;59266;52.608;13.260;2024-02-21T12:07:45;9.55;;;2.97;;
71462;SDS011;59266;52.608;13.260;2024-02-21T12:10:12;8.40;;;3.00;;
71462;SDS011;59266;52.608;13.260;2024-02-21T12:12:40;7.82;;;2.58;;
71462;SDS011;59266;52.608;13.260;2024-02-21T12:15:07;9.15;;;2.85;;
71462;SDS011;59266;52.608;13.260;2024-02-21T12:17:37;9.20;;;3.38;;
71462;SDS011;59266;52.608;13.260;2024-02-21T12:20:06;11.27;;;2.92;;
71462;SDS011;59266;52.608;13.260;2024-02-21T12:22:38;8.13;;;3.08;;
71462;SDS011;59266;52.608;13.260;2024-02-21T12:25:21;8.95;;;2.72;;
71462;SDS011;59266;52.608;13.260;2024-02-21T12:27:49;8.57;;;2.70;;
71462;SDS011;59266;52.608;13.260;2024-02-21T12:30:16;7.35;;;2.78;;
71462;SDS011;59266;52.608;13.260;2024-02-21T12:32:46;9.05;;;3.03;;
71462;SDS011;59266;52.608;13.260;2024-02-21T12:35:15;8.20;;;2.50;;
71462;SDS011;59266;52.608;13.260;2024-02-21T12:37:42;9.02;;;2.88;;
71462;SDS011;59266;52.608;13.260;2024-02-21T12:40:09;7.10;;;2.47;;
71462;SDS011;59266;52.608;13.260;2024-02-21T12:42:40;8.20;;;2.83;;
71462;SDS011;59266;52.608;13.260;2024-02-21T12:45:07;9.07;;;2.72;;
71462;SDS011;59266;52.608;13.260;2024-02-21T12:47:34;7.55;;;2.83;;
71462;SDS011;59266;52.608;13.260;2024-02-21T12:50:01;8.40;;;2.85;;
71462;SDS011;59266;52.608;13.260;2024-02-21T12:52:30;7.38;;;2.50;;
71462;SDS011;59266;52.608;13.260;2024-02-21T12:54:57;7.45;;;2.83;;
71462;SDS011;59266;52.608;13.260;2024-02-21T12:57:25;6.38;;;2.38;;
71462;SDS011;59266;52.608;13.260;2024-02-21T12:59:53;9.38;;;2.90;;
71462;SDS011;59266;52.608;13.260;2024-02-21T13:02:20;8.77;;;2.90;;
71462;SDS011;59266;52.608;13.260;2024-02-21T13:04:47;7.15;;;2.45;;
71462;SDS011;59266;52.608;13.260;2024-02-21T13:07:14;7.13;;;2.53;;
71462;SDS011;59266;52.608;13.260;2024-02-21T13:09:41;7.95;;;2.53;;
71462;SDS011;59266;52.608;13.260;2024-02-21T13:12:08;7.32;;;2.38;;
71462;SDS011;59266;52.608;13.260;2024-02-21T13:14:35;8.38;;;3.00;;
71462;SDS011;59266;52.608;13.260;2024-02-21T13:17:05;7.65;;;2.35;;
71462;SDS011;59266;52.608;13.260;2024-02-21T13:19:32;6.97;;;2.60;;
71462;SDS011;59266;52.608;13.260;2024-02-21T13:21:59;8.80;;;2.75;;
71462;SDS011;59266;52.608;13.260;2024-02-21T13:24:26;8.13;;;2.30;;
71462;SDS011;59266;52.608;13.260;2024-02-21T13:26:53;9.95;;;2.45;;
71462;SDS011;59266;52.608;13.260;2024-02-21T13:29:20;8.93;;;2.53;;
71462;SDS011;59266;52.608;13.260;2024-02-21T13:31:47;14.88;;;2.85;;
71462;SDS011;59266;52.608;13.260;2024-02-21T13:34:14;9.57;;;2.65;;
71462;SDS011;59266;52.608;13.260;2024-02-21T13:36:40;10.15;;;2.72;;
71462;SDS011;59266;52.608;13.260;2024-02-21T13:39:13;8.98;;;2.88;;
71462;SDS011;59266;52.608;13.260;2024-02-21T13:41:42;9.13;;;2.42;;
71462;SDS011;59266;52.608;13.260;2024-02-21T13:44:10;8.98;;;2.88;;
71462;SDS011;59266;52.608;13.260;2024-02-21T13:46:37;7.13;;;2.60;;
71462;SDS011;59266;52.608;13.260;2024-02-21T13:49:10;7.60;;;2.97;;
71462;SDS011;59266;52.608;13.260;2024-02-21T13:51:37;7.43;;;2.67;;
71462;SDS011;59266;52.608;13.260;2024-02-21T13:54:04;9.07;;;2.75;;
71462;SDS011;59266;52.608;13.260;2024-02-21T13:56:31;11.15;;;3.08;;
71462;SDS011;59266;52.608;13.260;2024-02-21T13:58:58;11.10;;;3.40;;
71462;SDS011;59266;52.608;13.260;2024-02-21T14:01:26;8.13;;;2.80;;
71462;SDS011;59266;52.608;13.260;2024-02-21T14:03:54;9.77;;;2.95;;
71462;SDS011;59266;52.608;13.260;2024-02-21T14:06:24;11.45;;;3.50;;
71462;SDS011;59266;52.608;13.260;2024-02-21T14:08:51;7.93;;;3.00;;
71462;SDS011;59266;52.608;13.260;2024-02-21T14:11:18;9.45;;;3.15;;
71462;SDS011;59266;52.608;13.260;2024-02-21T14:13:44;10.27;;;3.40;;
71462;SDS011;59266;52.608;13.260;2024-02-21T14:16:11;14.43;;;4.05;;
71462;SDS011;59266;52.608;13.260;2024-02-21T14:18:40;10.85;;;3.45;;
71462;SDS011;59266;52.608;13.260;2024-02-21T14:21:10;12.23;;;3.22;;
71462;SDS011;59266;52.608;13.260;2024-02-21T14:23:42;10.98;;;3.28;;
71462;SDS011;59266;52.608;13.260;2024-02-21T14:26:09;8.10;;;3.00;;
71462;SDS011;59266;52.608;13.260;2024-02-21T14:28:36;12.82;;;3.05;;
71462;SDS011;59266;52.608;13.260;2024-02-21T14:31:03;10.38;;;2.78;;
71462;SDS011;59266;52.608;13.260;2024-02-21T14:33:32;11.95;;;3.30;;
71462;SDS011;59266;52.608;13.260;2024-02-21T14:35:59;8.70;;;3.03;;
71462;SDS011;59266;52.608;13.260;2024-02-21T14:38:27;8.05;;;2.63;;
71462;SDS011;59266;52.608;13.260;2024-02-21T14:40:54;7.75;;;2.63;;
71462;SDS011;59266;52.608;13.260;2024-02-21T14:43:21;10.02;;;2.85;;
71462;SDS011;59266;52.608;13.260;2024-02-21T14:45:48;9.93;;;2.72;;